< < Back
Terminal Aerodrome Forecast


Current Version              Previous Versions:   1  2  3  4  5  6  7  8  9  

Terminal Aerodrome Forecast

137
FTUS42 KFFC 310532
TAFPDK
TAF
KPDK 310532Z 3106/0106 09003KT P6SM FEW080
     FM311400 06007KT P6SM SCT035 SCT120
     FM311700 05009KT P6SM SCT050
     FM010000 08004KT P6SM SCT120 SCT250=

Latest METAR

550
SAUS70 KWBC 312100 RRH
MTRPDK
METAR KPDK 312053Z VRB05KT 10SM SCT060 SCT075 33/18 A2991 RMK AO2 SLP106
T03280178 56022


USA.gov is the U.S. government's official web portal to all federal, state and local government web resources and services.